sensor_id;sensor_type;location;lat;lon;timestamp;temperature;humidity
3256;DHT22;1640;48.504;9.224;2022-10-17T00:00:06;13.90;99.90
3256;DHT22;1640;48.504;9.224;2022-10-17T00:02:33;13.90;99.90
3256;DHT22;1640;48.504;9.224;2022-10-17T00:05:01;13.90;99.90
3256;DHT22;1640;48.504;9.224;2022-10-17T00:07:30;13.80;99.90
3256;DHT22;1640;48.504;9.224;2022-10-17T00:09:58;13.80;99.90
3256;DHT22;1640;48.504;9.224;2022-10-17T00:12:25;13.70;99.90
3256;DHT22;1640;48.504;9.224;2022-10-17T00:14:53;13.80;99.90
3256;DHT22;1640;48.504;9.224;2022-10-17T00:17:20;13.80;99.90
3256;DHT22;1640;48.504;9.224;2022-10-17T00:19:47;13.80;99.90
3256;DHT22;1640;48.504;9.224;2022-10-17T00:22:15;13.70;99.90
3256;DHT22;1640;48.504;9.224;2022-10-17T00:24:44;13.80;99.90
3256;DHT22;1640;48.504;9.224;2022-10-17T00:27:11;13.70;99.90
3256;DHT22;1640;48.504;9.224;2022-10-17T00:29:38;13.70;99.90
3256;DHT22;1640;48.504;9.224;2022-10-17T00:32:06;13.60;99.90
3256;DHT22;1640;48.504;9.224;2022-10-17T00:34:33;13.60;99.90
3256;DHT22;1640;48.504;9.224;2022-10-17T00:37:00;13.60;99.90
3256;DHT22;1640;48.504;9.224;2022-10-17T00:39:28;13.60;99.90
3256;DHT22;1640;48.504;9.224;2022-10-17T00:41:57;13.50;99.90
3256;DHT22;1640;48.504;9.224;2022-10-17T00:47:29;13.40;99.90
3256;DHT22;1640;48.504;9.224;2022-10-17T00:49:57;13.40;99.90
3256;DHT22;1640;48.504;9.224;2022-10-17T00:52:27;13.40;99.90
3256;DHT22;1640;48.504;9.224;2022-10-17T00:54:59;13.30;99.90
3256;DHT22;1640;48.504;9.224;2022-10-17T00:57:31;13.30;99.90
3256;DHT22;1640;48.504;9.224;2022-10-17T01:00:00;13.20;99.90
3256;DHT22;1640;48.504;9.224;2022-10-17T01:02:29;13.20;99.90
3256;DHT22;1640;48.504;9.224;2022-10-17T01:04:57;13.10;99.90
3256;DHT22;1640;48.504;9.224;2022-10-17T01:07:26;13.10;99.90
3256;DHT22;1640;48.504;9.224;2022-10-17T01:09:55;13.10;99.90
3256;DHT22;1640;48.504;9.224;2022-10-17T01:12:24;13.00;99.90
3256;DHT22;1640;48.504;9.224;2022-10-17T01:15:04;13.00;99.90
3256;DHT22;1640;48.504;9.224;2022-10-17T01:17:43;12.90;99.90
3256;DHT22;1640;48.504;9.224;2022-10-17T01:20:41;12.90;99.90
3256;DHT22;1640;48.504;9.224;2022-10-17T01:26:32;12.90;99.90
3256;DHT22;1640;48.504;9.224;2022-10-17T01:29:32;12.80;99.90
3256;DHT22;1640;48.504;9.224;2022-10-17T01:32:07;12.70;99.90
3256;DHT22;1640;48.504;9.224;2022-10-17T01:34:42;12.70;99.90
3256;DHT22;1640;48.504;9.224;2022-10-17T01:37:15;12.70;99.90
3256;DHT22;1640;48.504;9.224;2022-10-17T01:39:49;12.70;99.90
3256;DHT22;1640;48.504;9.224;2022-10-17T01:42:21;12.70;99.90
3256;DHT22;1640;48.504;9.224;2022-10-17T01:44:56;12.60;99.90
3256;DHT22;1640;48.504;9.224;2022-10-17T01:47:29;12.60;99.90
3256;DHT22;1640;48.504;9.224;2022-10-17T01:50:02;12.60;99.90
3256;DHT22;1640;48.504;9.224;2022-10-17T01:52:36;12.60;99.90
3256;DHT22;1640;48.504;9.224;2022-10-17T01:55:09;12.60;99.90
3256;DHT22;1640;48.504;9.224;2022-10-17T01:57:41;12.50;99.90
3256;DHT22;1640;48.504;9.224;2022-10-17T02:00:12;12.50;99.90
3256;DHT22;1640;48.504;9.224;2022-10-17T02:02:44;12.60;99.90
3256;DHT22;1640;48.504;9.224;2022-10-17T02:05:13;12.60;99.90
3256;DHT22;1640;48.504;9.224;2022-10-17T02:07:42;12.50;99.90
3256;DHT22;1640;48.504;9.224;2022-10-17T02:10:15;12.40;99.90
3256;DHT22;1640;48.504;9.224;2022-10-17T02:12:50;12.30;99.90
3256;DHT22;1640;48.504;9.224;2022-10-17T02:15:38;12.40;99.90
3256;DHT22;1640;48.504;9.224;2022-10-17T02:18:18;12.40;99.90
3256;DHT22;1640;48.504;9.224;2022-10-17T02:20:53;12.40;99.90
3256;DHT22;1640;48.504;9.224;2022-10-17T02:23:26;12.40;99.90
3256;DHT22;1640;48.504;9.224;2022-10-17T02:26:02;12.40;99.90
3256;DHT22;1640;48.504;9.224;2022-10-17T02:28:38;12.40;99.90
3256;DHT22;1640;48.504;9.224;2022-10-17T02:31:12;12.40;99.90
3256;DHT22;1640;48.504;9.224;2022-10-17T02:33:45;12.30;99.90
3256;DHT22;1640;48.504;9.224;2022-10-17T02:36:18;12.30;99.90
3256;DHT22;1640;48.504;9.224;2022-10-17T02:38:48;12.30;99.90
3256;DHT22;1640;48.504;9.224;2022-10-17T02:41:17;12.20;99.90
3256;DHT22;1640;48.504;9.224;2022-10-17T02:43:47;12.20;99.90
3256;DHT22;1640;48.504;9.224;2022-10-17T02:46:18;12.30;99.90
3256;DHT22;1640;48.504;9.224;2022-10-17T02:48:50;12.20;99.90
3256;DHT22;1640;48.504;9.224;2022-10-17T02:51:24;12.30;99.90
3256;DHT22;1640;48.504;9.224;2022-10-17T02:53:59;12.30;99.90
3256;DHT22;1640;48.504;9.224;2022-10-17T02:56:33;12.30;99.90
3256;DHT22;1640;48.504;9.224;2022-10-17T02:59:05;12.30;99.90
3256;DHT22;1640;48.504;9.224;2022-10-17T03:01:36;12.30;99.90
3256;DHT22;1640;48.504;9.224;2022-10-17T03:04:08;12.30;99.90
3256;DHT22;1640;48.504;9.224;2022-10-17T03:06:37;12.20;99.90
3256;DHT22;1640;48.504;9.224;2022-10-17T03:09:04;12.20;99.90
3256;DHT22;1640;48.504;9.224;2022-10-17T03:11:32;12.10;99.90
3256;DHT22;1640;48.504;9.224;2022-10-17T03:13:59;12.10;99.90
3256;DHT22;1640;48.504;9.224;2022-10-17T03:16:29;12.10;99.90
3256;DHT22;1640;48.504;9.224;2022-10-17T03:18:56;12.00;99.90
3256;DHT22;1640;48.504;9.224;2022-10-17T03:21:25;12.00;99.90
3256;DHT22;1640;48.504;9.224;2022-10-17T03:23:52;12.00;99.90
3256;DHT22;1640;48.504;9.224;2022-10-17T03:26:20;12.00;99.90
3256;DHT22;1640;48.504;9.224;2022-10-17T03:28:47;12.00;99.90
3256;DHT22;1640;48.504;9.224;2022-10-17T03:31:16;11.90;99.90
3256;DHT22;1640;48.504;9.224;2022-10-17T03:33:43;11.90;99.90
3256;DHT22;1640;48.504;9.224;2022-10-17T03:36:12;11.90;99.90
3256;DHT22;1640;48.504;9.224;2022-10-17T03:38:42;11.90;99.90
3256;DHT22;1640;48.504;9.224;2022-10-17T03:41:10;11.90;99.90
3256;DHT22;1640;48.504;9.224;2022-10-17T03:43:37;11.80;99.90
3256;DHT22;1640;48.504;9.224;2022-10-17T03:46:05;11.70;99.90
3256;DHT22;1640;48.504;9.224;2022-10-17T03:48:33;11.70;99.90
3256;DHT22;1640;48.504;9.224;2022-10-17T03:51:02;11.60;99.90
3256;DHT22;1640;48.504;9.224;2022-10-17T03:53:30;11.70;99.90
3256;DHT22;1640;48.504;9.224;2022-10-17T03:56:09;11.80;99.90
3256;DHT22;1640;48.504;9.224;2022-10-17T03:58:37;11.80;99.90
3256;DHT22;1640;48.504;9.224;2022-10-17T04:01:06;11.90;99.90
3256;DHT22;1640;48.504;9.224;2022-10-17T04:03:33;11.90;99.90
3256;DHT22;1640;48.504;9.224;2022-10-17T04:06:03;11.90;99.90
3256;DHT22;1640;48.504;9.224;2022-10-17T04:08:31;11.80;99.90
3256;DHT22;1640;48.504;9.224;2022-10-17T04:10:59;11.80;99.90
3256;DHT22;1640;48.504;9.224;2022-10-17T04:13:29;11.80;99.90
3256;DHT22;1640;48.504;9.224;2022-10-17T04:15:58;11.70;99.90
3256;DHT22;1640;48.504;9.224;2022-10-17T04:18:26;11.80;99.90
3256;DHT22;1640;48.504;9.224;2022-10-17T04:20:53;11.80;99.90
3256;DHT22;1640;48.504;9.224;2022-10-17T04:23:21;11.70;99.90
3256;DHT22;1640;48.504;9.224;2022-10-17T04:25:49;11.50;99.90
3256;DHT22;1640;48.504;9.224;2022-10-17T04:28:16;11.40;99.90
3256;DHT22;1640;48.504;9.224;2022-10-17T04:30:45;11.60;99.90
3256;DHT22;1640;48.504;9.224;2022-10-17T04:33:12;11.60;99.90
3256;DHT22;1640;48.504;9.224;2022-10-17T04:35:40;11.60;99.90
3256;DHT22;1640;48.504;9.224;2022-10-17T04:38:07;11.50;99.90
3256;DHT22;1640;48.504;9.224;2022-10-17T04:40:35;11.40;99.90
3256;DHT22;1640;48.504;9.224;2022-10-17T04:43:03;11.30;99.90
3256;DHT22;1640;48.504;9.224;2022-10-17T04:45:30;11.20;99.90
3256;DHT22;1640;48.504;9.224;2022-10-17T04:47:59;11.20;99.90
3256;DHT22;1640;48.504;9.224;2022-10-17T04:50:26;11.20;99.90
3256;DHT22;1640;48.504;9.224;2022-10-17T04:52:54;11.10;99.90
3256;DHT22;1640;48.504;9.224;2022-10-17T04:55:21;11.00;99.90
3256;DHT22;1640;48.504;9.224;2022-10-17T04:57:48;11.00;99.90
3256;DHT22;1640;48.504;9.224;2022-10-17T05:00:16;10.90;99.90
3256;DHT22;1640;48.504;9.224;2022-10-17T05:02:44;10.90;99.90
3256;DHT22;1640;48.504;9.224;2022-10-17T05:05:13;10.90;99.90
3256;DHT22;1640;48.504;9.224;2022-10-17T05:07:41;10.90;99.90
3256;DHT22;1640;48.504;9.224;2022-10-17T05:10:08;10.90;99.90
3256;DHT22;1640;48.504;9.224;2022-10-17T05:12:36;10.80;99.90
3256;DHT22;1640;48.504;9.224;2022-10-17T05:15:04;10.80;99.90
3256;DHT22;1640;48.504;9.224;2022-10-17T05:17:32;10.80;99.90
3256;DHT22;1640;48.504;9.224;2022-10-17T05:19:59;10.80;99.90
3256;DHT22;1640;48.504;9.224;2022-10-17T05:22:28;10.80;99.90
3256;DHT22;1640;48.504;9.224;2022-10-17T05:24:55;10.80;99.90
3256;DHT22;1640;48.504;9.224;2022-10-17T05:27:23;10.80;99.90
3256;DHT22;1640;48.504;9.224;2022-10-17T05:29:50;10.80;99.90
3256;DHT22;1640;48.504;9.224;2022-10-17T05:32:17;10.80;99.90
3256;DHT22;1640;48.504;9.224;2022-10-17T05:34:45;10.70;99.90
3256;DHT22;1640;48.504;9.224;2022-10-17T05:37:12;10.70;99.90
3256;DHT22;1640;48.504;9.224;2022-10-17T05:39:41;10.80;99.90
3256;DHT22;1640;48.504;9.224;2022-10-17T05:42:08;10.80;99.90
3256;DHT22;1640;48.504;9.224;2022-10-17T05:44:36;10.80;99.90
3256;DHT22;1640;48.504;9.224;2022-10-17T05:47:06;10.90;99.90
3256;DHT22;1640;48.504;9.224;2022-10-17T05:49:34;10.90;99.90
3256;DHT22;1640;48.504;9.224;2022-10-17T05:52:01;10.90;99.90
3256;DHT22;1640;48.504;9.224;2022-10-17T05:54:29;10.90;99.90
3256;DHT22;1640;48.504;9.224;2022-10-17T05:56:57;10.90;99.90
3256;DHT22;1640;48.504;9.224;2022-10-17T05:59:25;10.90;99.90
3256;DHT22;1640;48.504;9.224;2022-10-17T06:01:53;10.90;99.90
3256;DHT22;1640;48.504;9.224;2022-10-17T06:04:21;10.90;99.90
3256;DHT22;1640;48.504;9.224;2022-10-17T06:06:48;10.90;99.90
3256;DHT22;1640;48.504;9.224;2022-10-17T06:09:15;11.00;99.90
3256;DHT22;1640;48.504;9.224;2022-10-17T06:11:43;11.00;99.90
3256;DHT22;1640;48.504;9.224;2022-10-17T06:14:12;11.00;99.90
3256;DHT22;1640;48.504;9.224;2022-10-17T06:16:39;11.00;99.90
3256;DHT22;1640;48.504;9.224;2022-10-17T06:19:08;11.10;99.90
3256;DHT22;1640;48.504;9.224;2022-10-17T06:21:36;11.10;99.90
3256;DHT22;1640;48.504;9.224;2022-10-17T06:24:04;11.10;99.90
3256;DHT22;1640;48.504;9.224;2022-10-17T06:26:31;11.10;99.90
3256;DHT22;1640;48.504;9.224;2022-10-17T06:28:58;11.10;99.90
3256;DHT22;1640;48.504;9.224;2022-10-17T06:31:27;11.10;99.90
3256;DHT22;1640;48.504;9.224;2022-10-17T06:33:55;11.10;99.90
3256;DHT22;1640;48.504;9.224;2022-10-17T06:36:22;11.20;99.90
3256;DHT22;1640;48.504;9.224;2022-10-17T06:38:50;11.20;99.90
3256;DHT22;1640;48.504;9.224;2022-10-17T06:41:18;11.20;99.90
3256;DHT22;1640;48.504;9.224;2022-10-17T06:43:46;11.30;99.90
3256;DHT22;1640;48.504;9.224;2022-10-17T06:46:14;11.30;99.90
3256;DHT22;1640;48.504;9.224;2022-10-17T06:48:44;11.40;99.90
3256;DHT22;1640;48.504;9.224;2022-10-17T06:51:11;11.40;99.90
3256;DHT22;1640;48.504;9.224;2022-10-17T06:53:39;11.30;99.90
3256;DHT22;1640;48.504;9.224;2022-10-17T06:56:08;11.30;99.90
3256;DHT22;1640;48.504;9.224;2022-10-17T06:58:37;11.30;99.90
3256;DHT22;1640;48.504;9.224;2022-10-17T07:01:06;11.30;99.90
3256;DHT22;1640;48.504;9.224;2022-10-17T07:03:34;11.40;99.90
3256;DHT22;1640;48.504;9.224;2022-10-17T07:06:03;11.40;99.90
3256;DHT22;1640;48.504;9.224;2022-10-17T07:08:31;11.40;99.90
3256;DHT22;1640;48.504;9.224;2022-10-17T07:10:59;11.50;99.90
3256;DHT22;1640;48.504;9.224;2022-10-17T07:13:34;11.60;99.90
3256;DHT22;1640;48.504;9.224;2022-10-17T07:16:02;11.60;99.90
3256;DHT22;1640;48.504;9.224;2022-10-17T07:18:29;11.70;99.90
3256;DHT22;1640;48.504;9.224;2022-10-17T07:20:56;11.70;99.90
3256;DHT22;1640;48.504;9.224;2022-10-17T07:23:25;11.80;99.90
3256;DHT22;1640;48.504;9.224;2022-10-17T07:25:58;11.90;99.90
3256;DHT22;1640;48.504;9.224;2022-10-17T07:28:27;12.00;99.90
3256;DHT22;1640;48.504;9.224;2022-10-17T07:30:54;12.20;99.90
3256;DHT22;1640;48.504;9.224;2022-10-17T07:33:22;12.30;99.90
3256;DHT22;1640;48.504;9.224;2022-10-17T07:35:49;12.40;99.90
3256;DHT22;1640;48.504;9.224;2022-10-17T07:38:18;12.60;99.90
3256;DHT22;1640;48.504;9.224;2022-10-17T07:40:53;12.70;99.90
3256;DHT22;1640;48.504;9.224;2022-10-17T07:43:20;12.90;99.90
3256;DHT22;1640;48.504;9.224;2022-10-17T07:45:48;13.00;99.90
3256;DHT22;1640;48.504;9.224;2022-10-17T07:48:15;13.10;99.90
3256;DHT22;1640;48.504;9.224;2022-10-17T07:50:42;13.20;99.90
3256;DHT22;1640;48.504;9.224;2022-10-17T07:53:10;13.40;99.90
3256;DHT22;1640;48.504;9.224;2022-10-17T07:55:37;13.60;99.90
3256;DHT22;1640;48.504;9.224;2022-10-17T07:58:07;13.80;99.90
3256;DHT22;1640;48.504;9.224;2022-10-17T08:00:35;14.00;99.90
3256;DHT22;1640;48.504;9.224;2022-10-17T08:03:03;14.20;99.90
3256;DHT22;1640;48.504;9.224;2022-10-17T08:05:31;14.40;99.90
3256;DHT22;1640;48.504;9.224;2022-10-17T08:07:59;14.40;99.90
3256;DHT22;1640;48.504;9.224;2022-10-17T08:10:26;14.50;99.90
3256;DHT22;1640;48.504;9.224;2022-10-17T08:12:56;14.60;99.90
3256;DHT22;1640;48.504;9.224;2022-10-17T08:15:25;14.70;99.90
3256;DHT22;1640;48.504;9.224;2022-10-17T08:17:53;14.80;99.90
3256;DHT22;1640;48.504;9.224;2022-10-17T08:20:21;15.00;99.90
3256;DHT22;1640;48.504;9.224;2022-10-17T08:22:51;15.10;99.90
3256;DHT22;1640;48.504;9.224;2022-10-17T08:25:19;15.20;3.00
3256;DHT22;1640;48.504;9.224;2022-10-17T08:27:46;15.20;99.90
3256;DHT22;1640;48.504;9.224;2022-10-17T08:30:14;15.40;1.80
3256;DHT22;1640;48.504;9.224;2022-10-17T08:32:43;15.60;5.50
3256;DHT22;1640;48.504;9.224;2022-10-17T08:35:10;15.70;7.50
3256;DHT22;1640;48.504;9.224;2022-10-17T08:37:39;15.90;9.10
3256;DHT22;1640;48.504;9.224;2022-10-17T08:40:11;16.00;15.50
3256;DHT22;1640;48.504;9.224;2022-10-17T08:42:58;16.10;20.80
3256;DHT22;1640;48.504;9.224;2022-10-17T08:45:32;16.20;24.80
3256;DHT22;1640;48.504;9.224;2022-10-17T08:48:04;16.30;26.30
3256;DHT22;1640;48.504;9.224;2022-10-17T08:50:37;16.30;26.70
3256;DHT22;1640;48.504;9.224;2022-10-17T08:53:11;16.30;25.30
3256;DHT22;1640;48.504;9.224;2022-10-17T08:55:44;16.40;24.50
3256;DHT22;1640;48.504;9.224;2022-10-17T08:58:13;16.50;26.00
3256;DHT22;1640;48.504;9.224;2022-10-17T09:00:47;16.70;26.10
3256;DHT22;1640;48.504;9.224;2022-10-17T09:03:30;16.90;28.00
3256;DHT22;1640;48.504;9.224;2022-10-17T09:06:11;17.10;34.30
3256;DHT22;1640;48.504;9.224;2022-10-17T09:08:48;17.40;37.50
3256;DHT22;1640;48.504;9.224;2022-10-17T09:11:40;17.70;45.10
3256;DHT22;1640;48.504;9.224;2022-10-17T09:14:20;17.90;46.10
3256;DHT22;1640;48.504;9.224;2022-10-17T09:16:56;18.10;48.50
3256;DHT22;1640;48.504;9.224;2022-10-17T09:19:29;18.30;52.30
3256;DHT22;1640;48.504;9.224;2022-10-17T09:22:02;18.60;54.40
3256;DHT22;1640;48.504;9.224;2022-10-17T09:24:37;18.80;57.50
3256;DHT22;1640;48.504;9.224;2022-10-17T09:27:21;18.80;57.80
3256;DHT22;1640;48.504;9.224;2022-10-17T09:29:53;19.10;60.00
3256;DHT22;1640;48.504;9.224;2022-10-17T09:32:23;19.20;60.10
3256;DHT22;1640;48.504;9.224;2022-10-17T09:34:53;19.30;62.20
3256;DHT22;1640;48.504;9.224;2022-10-17T09:37:28;19.50;63.00
3256;DHT22;1640;48.504;9.224;2022-10-17T09:39:57;19.60;61.30
3256;DHT22;1640;48.504;9.224;2022-10-17T09:42:25;19.70;62.70
3256;DHT22;1640;48.504;9.224;2022-10-17T09:45:02;19.90;63.40
3256;DHT22;1640;48.504;9.224;2022-10-17T09:47:36;20.00;62.90
3256;DHT22;1640;48.504;9.224;2022-10-17T09:50:16;20.30;64.00
3256;DHT22;1640;48.504;9.224;2022-10-17T09:52:47;20.40;65.60
3256;DHT22;1640;48.504;9.224;2022-10-17T09:55:18;20.60;65.50
3256;DHT22;1640;48.504;9.224;2022-10-17T09:57:54;20.80;66.30
3256;DHT22;1640;48.504;9.224;2022-10-17T10:00:24;21.00;67.80
3256;DHT22;1640;48.504;9.224;2022-10-17T10:03:12;21.20;68.30
3256;DHT22;1640;48.504;9.224;2022-10-17T10:05:44;21.40;69.20
3256;DHT22;1640;48.504;9.224;2022-10-17T10:08:27;21.60;69.00
3256;DHT22;1640;48.504;9.224;2022-10-17T10:10:59;21.80;69.00
3256;DHT22;1640;48.504;9.224;2022-10-17T10:13:30;22.00;69.80
3256;DHT22;1640;48.504;9.224;2022-10-17T10:16:18;22.10;70.00
3256;DHT22;1640;48.504;9.224;2022-10-17T10:18:47;22.30;70.00
3256;DHT22;1640;48.504;9.224;2022-10-17T10:21:17;22.40;70.20
3256;DHT22;1640;48.504;9.224;2022-10-17T10:24:02;22.40;70.00
3256;DHT22;1640;48.504;9.224;2022-10-17T10:26:34;22.60;70.30
3256;DHT22;1640;48.504;9.224;2022-10-17T10:29:05;22.60;70.20
3256;DHT22;1640;48.504;9.224;2022-10-17T10:31:36;22.70;70.20
3256;DHT22;1640;48.504;9.224;2022-10-17T10:34:15;22.90;69.90
3256;DHT22;1640;48.504;9.224;2022-10-17T10:36:58;23.00;69.20
3256;DHT22;1640;48.504;9.224;2022-10-17T10:39:32;23.10;69.00
3256;DHT22;1640;48.504;9.224;2022-10-17T10:42:01;23.30;68.00
3256;DHT22;1640;48.504;9.224;2022-10-17T10:44:31;23.30;68.00
3256;DHT22;1640;48.504;9.224;2022-10-17T10:47:07;23.40;67.80
3256;DHT22;1640;48.504;9.224;2022-10-17T10:49:37;23.50;66.50
3256;DHT22;1640;48.504;9.224;2022-10-17T10:52:09;23.60;66.50
3256;DHT22;1640;48.504;9.224;2022-10-17T10:54:42;23.60;66.90
3256;DHT22;1640;48.504;9.224;2022-10-17T10:57:16;23.80;66.70
3256;DHT22;1640;48.504;9.224;2022-10-17T10:59:57;23.90;67.20
3256;DHT22;1640;48.504;9.224;2022-10-17T11:02:30;23.90;68.80
3256;DHT22;1640;48.504;9.224;2022-10-17T11:05:03;23.90;69.50
3256;DHT22;1640;48.504;9.224;2022-10-17T11:07:36;23.80;69.60
3256;DHT22;1640;48.504;9.224;2022-10-17T11:10:11;23.80;69.90
3256;DHT22;1640;48.504;9.224;2022-10-17T11:12:44;23.80;69.60
3256;DHT22;1640;48.504;9.224;2022-10-17T11:15:24;23.90;69.30
3256;DHT22;1640;48.504;9.224;2022-10-17T11:17:58;23.90;69.60
3256;DHT22;1640;48.504;9.224;2022-10-17T11:20:32;23.90;69.30
3256;DHT22;1640;48.504;9.224;2022-10-17T11:23:13;23.70;69.50
3256;DHT22;1640;48.504;9.224;2022-10-17T11:25:45;23.70;70.00
3256;DHT22;1640;48.504;9.224;2022-10-17T11:28:15;23.70;69.50
3256;DHT22;1640;48.504;9.224;2022-10-17T11:30:51;23.60;69.20
3256;DHT22;1640;48.504;9.224;2022-10-17T11:33:27;23.60;69.30
3256;DHT22;1640;48.504;9.224;2022-10-17T11:36:00;23.60;69.20
3256;DHT22;1640;48.504;9.224;2022-10-17T11:38:38;23.50;69.30
3256;DHT22;1640;48.504;9.224;2022-10-17T11:41:09;23.60;69.30
3256;DHT22;1640;48.504;9.224;2022-10-17T11:43:43;23.60;69.30
3256;DHT22;1640;48.504;9.224;2022-10-17T11:46:16;23.60;69.50
3256;DHT22;1640;48.504;9.224;2022-10-17T11:48:56;23.70;69.50
3256;DHT22;1640;48.504;9.224;2022-10-17T11:51:25;23.70;69.30
3256;DHT22;1640;48.504;9.224;2022-10-17T11:53:58;23.80;69.20
3256;DHT22;1640;48.504;9.224;2022-10-17T11:56:37;23.90;68.30
3256;DHT22;1640;48.504;9.224;2022-10-17T11:59:31;23.90;68.50
3256;DHT22;1640;48.504;9.224;2022-10-17T12:02:07;23.80;67.80
3256;DHT22;1640;48.504;9.224;2022-10-17T12:04:44;23.90;67.60
3256;DHT22;1640;48.504;9.224;2022-10-17T12:07:18;23.80;68.50
3256;DHT22;1640;48.504;9.224;2022-10-17T12:09:52;23.90;68.50
3256;DHT22;1640;48.504;9.224;2022-10-17T12:12:27;23.70;66.30
3256;DHT22;1640;48.504;9.224;2022-10-17T12:15:28;23.60;67.20
3256;DHT22;1640;48.504;9.224;2022-10-17T12:17:57;23.70;65.50
3256;DHT22;1640;48.504;9.224;2022-10-17T12:20:34;23.70;64.70
3256;DHT22;1640;48.504;9.224;2022-10-17T12:23:25;23.70;64.50
3256;DHT22;1640;48.504;9.224;2022-10-17T12:25:55;23.70;64.70
3256;DHT22;1640;48.504;9.224;2022-10-17T12:28:28;23.80;63.20
3256;DHT22;1640;48.504;9.224;2022-10-17T12:30:58;23.90;63.00
3256;DHT22;1640;48.504;9.224;2022-10-17T12:33:36;23.90;61.40
3256;DHT22;1640;48.504;9.224;2022-10-17T12:39:41;24.00;60.90
3256;DHT22;1640;48.504;9.224;2022-10-17T12:42:45;24.00;62.40
3256;DHT22;1640;48.504;9.224;2022-10-17T12:45:45;24.00;59.90
3256;DHT22;1640;48.504;9.224;2022-10-17T12:51:22;24.10;58.80
3256;DHT22;1640;48.504;9.224;2022-10-17T12:53:57;24.20;58.60
3256;DHT22;1640;48.504;9.224;2022-10-17T12:56:38;24.20;57.80
3256;DHT22;1640;48.504;9.224;2022-10-17T12:59:11;24.20;58.10
3256;DHT22;1640;48.504;9.224;2022-10-17T13:01:44;24.20;56.90
3256;DHT22;1640;48.504;9.224;2022-10-17T13:04:13;24.20;57.00
3256;DHT22;1640;48.504;9.224;2022-10-17T13:06:45;24.30;56.30
3256;DHT22;1640;48.504;9.224;2022-10-17T13:09:23;24.40;54.70
3256;DHT22;1640;48.504;9.224;2022-10-17T13:11:51;24.40;55.60
3256;DHT22;1640;48.504;9.224;2022-10-17T13:14:21;24.50;54.40
3256;DHT22;1640;48.504;9.224;2022-10-17T13:16:53;24.40;52.40
3256;DHT22;1640;48.504;9.224;2022-10-17T13:19:22;24.50;52.30
3256;DHT22;1640;48.504;9.224;2022-10-17T13:21:51;24.50;52.90
3256;DHT22;1640;48.504;9.224;2022-10-17T13:24:22;24.60;52.90
3256;DHT22;1640;48.504;9.224;2022-10-17T13:26:54;24.60;53.50
3256;DHT22;1640;48.504;9.224;2022-10-17T13:29:23;24.60;54.80
3256;DHT22;1640;48.504;9.224;2022-10-17T13:31:53;24.60;54.70
3256;DHT22;1640;48.504;9.224;2022-10-17T13:34:22;24.60;53.10
3256;DHT22;1640;48.504;9.224;2022-10-17T13:36:51;24.60;53.10
3256;DHT22;1640;48.504;9.224;2022-10-17T13:39:21;24.60;52.10
3256;DHT22;1640;48.504;9.224;2022-10-17T13:41:51;24.50;51.40
3256;DHT22;1640;48.504;9.224;2022-10-17T13:44:21;24.50;51.70
3256;DHT22;1640;48.504;9.224;2022-10-17T13:46:51;24.50;51.00
3256;DHT22;1640;48.504;9.224;2022-10-17T13:49:21;24.60;51.40
3256;DHT22;1640;48.504;9.224;2022-10-17T13:51:50;24.60;52.00
3256;DHT22;1640;48.504;9.224;2022-10-17T13:54:32;24.50;51.20
3256;DHT22;1640;48.504;9.224;2022-10-17T13:57:01;24.60;52.30
3256;DHT22;1640;48.504;9.224;2022-10-17T13:59:33;24.60;51.80
3256;DHT22;1640;48.504;9.224;2022-10-17T14:02:05;24.60;52.30
3256;DHT22;1640;48.504;9.224;2022-10-17T14:04:38;24.60;50.50
3256;DHT22;1640;48.504;9.224;2022-10-17T14:07:05;24.60;51.80
3256;DHT22;1640;48.504;9.224;2022-10-17T14:09:45;24.60;51.00
3256;DHT22;1640;48.504;9.224;2022-10-17T14:12:13;24.50;50.90
3256;DHT22;1640;48.504;9.224;2022-10-17T14:14:47;24.40;51.80
3256;DHT22;1640;48.504;9.224;2022-10-17T14:17:21;24.40;52.40
3256;DHT22;1640;48.504;9.224;2022-10-17T14:19:51;24.40;52.10
3256;DHT22;1640;48.504;9.224;2022-10-17T14:22:26;24.30;52.70
3256;DHT22;1640;48.504;9.224;2022-10-17T14:24:55;24.40;51.80
3256;DHT22;1640;48.504;9.224;2022-10-17T14:27:25;24.30;53.20
3256;DHT22;1640;48.504;9.224;2022-10-17T14:29:53;24.30;52.70
3256;DHT22;1640;48.504;9.224;2022-10-17T14:32:24;24.20;53.20
3256;DHT22;1640;48.504;9.224;2022-10-17T14:34:53;24.20;52.50
3256;DHT22;1640;48.504;9.224;2022-10-17T14:37:29;24.20;53.30
3256;DHT22;1640;48.504;9.224;2022-10-17T14:39:58;24.20;52.70
3256;DHT22;1640;48.504;9.224;2022-10-17T14:42:26;24.20;53.50
3256;DHT22;1640;48.504;9.224;2022-10-17T14:44:58;24.20;53.50
3256;DHT22;1640;48.504;9.224;2022-10-17T14:47:27;24.20;53.10
3256;DHT22;1640;48.504;9.224;2022-10-17T14:50:03;24.10;53.10
3256;DHT22;1640;48.504;9.224;2022-10-17T14:52:31;24.10;53.10
3256;DHT22;1640;48.504;9.224;2022-10-17T14:55:16;24.20;53.90
3256;DHT22;1640;48.504;9.224;2022-10-17T14:57:46;24.20;53.60
3256;DHT22;1640;48.504;9.224;2022-10-17T15:00:15;24.20;53.90
3256;DHT22;1640;48.504;9.224;2022-10-17T15:02:45;24.20;53.50
3256;DHT22;1640;48.504;9.224;2022-10-17T15:05:13;24.20;53.60
3256;DHT22;1640;48.504;9.224;2022-10-17T15:07:41;24.10;54.40
3256;DHT22;1640;48.504;9.224;2022-10-17T15:10:24;24.10;54.80
3256;DHT22;1640;48.504;9.224;2022-10-17T15:12:51;24.10;55.00
3256;DHT22;1640;48.504;9.224;2022-10-17T15:15:19;24.10;55.60
3256;DHT22;1640;48.504;9.224;2022-10-17T15:17:48;24.10;55.80
3256;DHT22;1640;48.504;9.224;2022-10-17T15:20:16;24.10;55.50
3256;DHT22;1640;48.504;9.224;2022-10-17T15:22:45;24.10;55.50
3256;DHT22;1640;48.504;9.224;2022-10-17T15:25:13;24.00;56.20
3256;DHT22;1640;48.504;9.224;2022-10-17T15:27:40;24.00;55.90
3256;DHT22;1640;48.504;9.224;2022-10-17T15:30:17;24.00;56.20
3256;DHT22;1640;48.504;9.224;2022-10-17T15:32:45;23.90;56.30
3256;DHT22;1640;48.504;9.224;2022-10-17T15:35:15;23.90;56.20
3256;DHT22;1640;48.504;9.224;2022-10-17T15:37:43;23.90;57.10
3256;DHT22;1640;48.504;9.224;2022-10-17T15:40:14;23.90;57.40
3256;DHT22;1640;48.504;9.224;2022-10-17T15:42:42;23.90;57.70
3256;DHT22;1640;48.504;9.224;2022-10-17T15:45:10;23.80;58.60
3256;DHT22;1640;48.504;9.224;2022-10-17T15:47:40;23.80;58.90
3256;DHT22;1640;48.504;9.224;2022-10-17T15:50:12;23.80;57.70
3256;DHT22;1640;48.504;9.224;2022-10-17T15:52:41;23.80;58.10
3256;DHT22;1640;48.504;9.224;2022-10-17T15:55:09;23.70;59.30
3256;DHT22;1640;48.504;9.224;2022-10-17T15:57:40;23.60;60.40
3256;DHT22;1640;48.504;9.224;2022-10-17T16:00:15;23.50;60.70
3256;DHT22;1640;48.504;9.224;2022-10-17T16:02:42;23.40;61.60
3256;DHT22;1640;48.504;9.224;2022-10-17T16:05:13;23.30;62.40
3256;DHT22;1640;48.504;9.224;2022-10-17T16:07:42;23.20;63.70
3256;DHT22;1640;48.504;9.224;2022-10-17T16:10:11;23.00;65.70
3256;DHT22;1640;48.504;9.224;2022-10-17T16:12:38;22.80;65.90
3256;DHT22;1640;48.504;9.224;2022-10-17T16:15:12;22.70;67.00
3256;DHT22;1640;48.504;9.224;2022-10-17T16:17:39;22.50;68.90
3256;DHT22;1640;48.504;9.224;2022-10-17T16:20:09;22.30;70.80
3256;DHT22;1640;48.504;9.224;2022-10-17T16:22:37;22.00;71.30
3256;DHT22;1640;48.504;9.224;2022-10-17T16:25:16;21.80;72.20
3256;DHT22;1640;48.504;9.224;2022-10-17T16:27:45;21.50;73.10
3256;DHT22;1640;48.504;9.224;2022-10-17T16:30:13;21.30;73.20
3256;DHT22;1640;48.504;9.224;2022-10-17T16:32:41;21.00;73.10
3256;DHT22;1640;48.504;9.224;2022-10-17T16:35:10;20.70;72.60
3256;DHT22;1640;48.504;9.224;2022-10-17T16:37:40;20.50;71.90
3256;DHT22;1640;48.504;9.224;2022-10-17T16:40:10;20.30;70.90